createdAt,value
2018-08-12T00:01:27.296Z,51
2018-08-12T00:11:27.090Z,55
2018-08-12T00:21:29.261Z,51
2018-08-12T00:31:27.601Z,52
2018-08-12T00:41:28.712Z,55
2018-08-12T00:51:28.880Z,55
2018-08-12T01:01:29.005Z,55
2018-08-12T01:11:27.349Z,52
2018-08-12T01:21:28.736Z,55
2018-08-12T01:31:29.762Z,56
2018-08-12T01:41:30.151Z,52
2018-08-12T01:51:27.931Z,52
2018-08-12T02:01:27.277Z,53
2018-08-12T02:11:27.431Z,56
2018-08-12T02:21:28.778Z,56
2018-08-12T02:31:28.509Z,52
2018-08-12T02:41:29.243Z,54
2018-08-12T02:51:28.553Z,52
2018-08-12T03:01:29.480Z,52
2018-08-12T03:11:28.246Z,53
2018-08-12T03:21:28.438Z,58
2018-08-12T03:31:28.368Z,57
2018-08-12T03:41:28.197Z,59
2018-08-12T03:51:29.425Z,55
2018-08-12T04:01:28.501Z,58
2018-08-12T04:11:27.187Z,56
2018-08-12T04:21:30.093Z,53
2018-08-12T04:31:28.222Z,53
2018-08-12T04:41:28.085Z,58
2018-08-12T04:51:28.690Z,54
2018-08-12T05:01:27.474Z,53
2018-08-12T05:11:28.501Z,57
2018-08-12T05:21:28.886Z,57
2018-08-12T05:31:28.058Z,57
2018-08-12T05:41:29.029Z,52
2018-08-12T05:51:28.993Z,54
2018-08-12T06:01:40.500Z,54
2018-08-12T06:11:29.191Z,52
2018-08-12T06:21:28.582Z,52
2018-08-12T06:31:27.754Z,56
2018-08-12T06:41:28.324Z,51
2018-08-12T06:51:27.603Z,55
2018-08-12T07:01:28.055Z,51
2018-08-12T07:11:26.893Z,50
2018-08-12T07:21:27.054Z,51
2018-08-12T07:31:27.293Z,49
2018-08-12T07:41:27.684Z,47
2018-08-12T07:51:28.642Z,46
2018-08-12T08:01:27.464Z,46
2018-08-12T08:11:27.573Z,48
2018-08-12T08:21:30.232Z,45
2018-08-12T08:31:27.317Z,44
2018-08-12T08:41:29.387Z,44
2018-08-12T08:51:28.265Z,44
2018-08-12T09:01:28.131Z,45
2018-08-12T09:11:28.469Z,44
2018-08-12T09:21:27.419Z,43
2018-08-12T09:31:27.207Z,45
2018-08-12T09:41:27.048Z,45
2018-08-12T09:51:29.059Z,41
2018-08-12T10:01:28.035Z,42
2018-08-12T10:11:27.804Z,42
2018-08-12T10:21:27.285Z,43
2018-08-12T10:31:27.335Z,43
2018-08-12T10:41:27.757Z,42
2018-08-12T10:51:27.522Z,41
2018-08-12T11:01:28.832Z,40
2018-08-12T11:21:28.538Z,39
2018-08-12T11:31:27.691Z,42
2018-08-12T11:41:28.078Z,41
2018-08-12T11:51:27.313Z,42
2018-08-12T12:01:27.301Z,41
2018-08-12T12:11:28.061Z,39
2018-08-12T12:21:29.044Z,37
2018-08-12T12:31:27.427Z,39
2018-08-12T12:41:30.061Z,37
2018-08-12T12:51:32.545Z,38
2018-08-12T13:01:27.406Z,41
2018-08-12T13:11:33.508Z,38
2018-08-12T13:21:33.733Z,38
2018-08-12T13:31:33.902Z,38
2018-08-12T13:41:33.070Z,38
2018-08-12T13:51:32.941Z,38
2018-08-12T14:01:33.321Z,37
2018-08-12T14:11:27.555Z,40
2018-08-12T14:21:29.138Z,37
2018-08-12T14:31:27.260Z,40
2018-08-12T14:41:27.232Z,39
2018-08-12T14:51:29.832Z,40
2018-08-12T15:01:27.774Z,39
2018-08-12T15:11:29.980Z,39
2018-08-12T15:21:28.780Z,38
2018-08-12T15:31:32.444Z,36
2018-08-12T15:41:27.892Z,37
2018-08-12T15:51:28.342Z,37
2018-08-12T16:01:28.029Z,39
2018-08-12T16:11:27.650Z,37
2018-08-12T16:21:29.376Z,38
2018-08-12T16:31:27.345Z,37
2018-08-12T16:41:29.245Z,37
2018-08-12T16:51:27.624Z,37
2018-08-12T17:01:28.292Z,37
2018-08-12T17:11:27.275Z,38
2018-08-12T17:21:27.933Z,38
2018-08-12T17:31:28.004Z,36
2018-08-12T17:41:26.984Z,36
2018-08-12T17:51:26.795Z,38
2018-08-12T18:01:27.816Z,39
2018-08-12T18:11:28.347Z,38
2018-08-12T18:21:27.458Z,36
2018-08-12T18:31:28.156Z,37
2018-08-12T18:41:27.411Z,39
2018-08-12T18:51:27.564Z,38
2018-08-12T19:01:27.518Z,40
2018-08-12T19:11:27.640Z,39
2018-08-12T19:21:27.748Z,38
2018-08-12T19:31:27.603Z,40
2018-08-12T19:41:29.777Z,37
2018-08-12T19:51:27.427Z,40
2018-08-12T20:01:28.526Z,38
2018-08-12T20:11:27.650Z,41
2018-08-12T20:21:39.209Z,39
2018-08-12T20:31:28.833Z,39
2018-08-12T20:41:27.663Z,38
2018-08-12T20:51:27.914Z,42
2018-08-12T21:01:27.671Z,39
2018-08-12T21:11:27.638Z,39
2018-08-12T21:21:27.700Z,42
2018-08-12T21:31:28.756Z,39
2018-08-12T21:41:27.821Z,39
2018-08-12T21:51:27.933Z,41
2018-08-12T22:01:27.234Z,42
2018-08-12T22:11:28.343Z,40
2018-08-12T22:21:28.216Z,39
2018-08-12T22:31:27.934Z,40
2018-08-12T22:41:28.653Z,39
2018-08-12T22:51:27.044Z,39
2018-08-12T23:01:28.260Z,43
2018-08-12T23:11:27.719Z,41
2018-08-12T23:21:27.060Z,43
2018-08-12T23:31:36.682Z,42
2018-08-12T23:41:27.549Z,44
2018-08-12T23:51:27.969Z,41
